sensor_id;sensor_type;location;lat;lon;timestamp;temperature;humidity
42201;DHT22;27869;51.442;7.540;2023-03-23T00:01:23;12.10;99.90
42201;DHT22;27869;51.442;7.540;2023-03-23T00:03:54;12.10;99.90
42201;DHT22;27869;51.442;7.540;2023-03-23T00:06:24;12.10;99.90
42201;DHT22;27869;51.442;7.540;2023-03-23T00:08:52;12.10;99.90
42201;DHT22;27869;51.442;7.540;2023-03-23T00:11:24;12.10;99.90
42201;DHT22;27869;51.442;7.540;2023-03-23T00:13:55;12.10;99.90
42201;DHT22;27869;51.442;7.540;2023-03-23T00:16:28;12.00;99.90
42201;DHT22;27869;51.442;7.540;2023-03-23T00:19:01;12.10;99.90
42201;DHT22;27869;51.442;7.540;2023-03-23T00:21:30;12.00;99.90
42201;DHT22;27869;51.442;7.540;2023-03-23T00:24:04;12.00;99.90
42201;DHT22;27869;51.442;7.540;2023-03-23T00:26:36;12.00;99.90
42201;DHT22;27869;51.442;7.540;2023-03-23T00:29:07;12.00;99.90
42201;DHT22;27869;51.442;7.540;2023-03-23T00:31:35;11.90;99.90
42201;DHT22;27869;51.442;7.540;2023-03-23T00:34:04;11.90;99.90
42201;DHT22;27869;51.442;7.540;2023-03-23T00:36:32;11.90;99.90
42201;DHT22;27869;51.442;7.540;2023-03-23T00:39:08;11.90;99.90
42201;DHT22;27869;51.442;7.540;2023-03-23T00:41:35;11.90;99.90
42201;DHT22;27869;51.442;7.540;2023-03-23T00:44:02;11.90;99.90
42201;DHT22;27869;51.442;7.540;2023-03-23T00:46:29;11.90;99.90
42201;DHT22;27869;51.442;7.540;2023-03-23T00:48:56;11.90;99.90
42201;DHT22;27869;51.442;7.540;2023-03-23T00:51:25;11.90;99.90
42201;DHT22;27869;51.442;7.540;2023-03-23T00:53:54;11.90;99.90
42201;DHT22;27869;51.442;7.540;2023-03-23T00:56:21;11.90;99.90
42201;DHT22;27869;51.442;7.540;2023-03-23T00:58:49;11.90;99.90
42201;DHT22;27869;51.442;7.540;2023-03-23T01:01:18;11.90;99.90
42201;DHT22;27869;51.442;7.540;2023-03-23T01:03:46;11.90;99.90
42201;DHT22;27869;51.442;7.540;2023-03-23T01:06:13;11.90;99.90
42201;DHT22;27869;51.442;7.540;2023-03-23T01:08:42;11.90;99.90
42201;DHT22;27869;51.442;7.540;2023-03-23T01:11:13;11.90;99.90
42201;DHT22;27869;51.442;7.540;2023-03-23T01:13:41;11.80;99.90
42201;DHT22;27869;51.442;7.540;2023-03-23T01:16:09;11.90;99.90
42201;DHT22;27869;51.442;7.540;2023-03-23T01:18:37;11.90;99.90
42201;DHT22;27869;51.442;7.540;2023-03-23T01:21:06;11.90;99.90
42201;DHT22;27869;51.442;7.540;2023-03-23T01:23:34;11.90;99.90
42201;DHT22;27869;51.442;7.540;2023-03-23T01:26:06;11.90;99.90
42201;DHT22;27869;51.442;7.540;2023-03-23T01:28:33;11.90;99.90
42201;DHT22;27869;51.442;7.540;2023-03-23T01:31:01;11.90;99.90
42201;DHT22;27869;51.442;7.540;2023-03-23T01:33:28;12.00;99.90
42201;DHT22;27869;51.442;7.540;2023-03-23T01:35:56;12.00;99.90
42201;DHT22;27869;51.442;7.540;2023-03-23T01:38:23;11.90;99.90
42201;DHT22;27869;51.442;7.540;2023-03-23T01:40:50;12.00;99.90
42201;DHT22;27869;51.442;7.540;2023-03-23T01:43:18;12.00;99.90
42201;DHT22;27869;51.442;7.540;2023-03-23T01:45:45;12.00;99.90
42201;DHT22;27869;51.442;7.540;2023-03-23T01:48:16;12.00;99.90
42201;DHT22;27869;51.442;7.540;2023-03-23T01:50:49;11.90;99.90
42201;DHT22;27869;51.442;7.540;2023-03-23T01:53:18;11.90;99.90
42201;DHT22;27869;51.442;7.540;2023-03-23T01:55:46;11.90;99.90
42201;DHT22;27869;51.442;7.540;2023-03-23T01:58:19;11.90;99.90
42201;DHT22;27869;51.442;7.540;2023-03-23T02:00:47;11.90;99.90
42201;DHT22;27869;51.442;7.540;2023-03-23T02:03:14;11.80;99.90
42201;DHT22;27869;51.442;7.540;2023-03-23T02:05:43;11.80;99.90
42201;DHT22;27869;51.442;7.540;2023-03-23T02:08:11;11.80;99.90
42201;DHT22;27869;51.442;7.540;2023-03-23T02:10:39;11.80;99.90
42201;DHT22;27869;51.442;7.540;2023-03-23T02:13:08;11.80;99.90
42201;DHT22;27869;51.442;7.540;2023-03-23T02:15:43;11.70;99.90
42201;DHT22;27869;51.442;7.540;2023-03-23T02:18:20;11.70;99.90
42201;DHT22;27869;51.442;7.540;2023-03-23T02:21:16;11.70;99.90
42201;DHT22;27869;51.442;7.540;2023-03-23T02:26:50;11.70;99.90
42201;DHT22;27869;51.442;7.540;2023-03-23T02:29:52;11.60;99.90
42201;DHT22;27869;51.442;7.540;2023-03-23T02:35:18;11.60;99.90
42201;DHT22;27869;51.442;7.540;2023-03-23T02:37:51;11.60;99.90
42201;DHT22;27869;51.442;7.540;2023-03-23T02:40:21;11.60;99.90
42201;DHT22;27869;51.442;7.540;2023-03-23T02:42:53;11.60;99.90
42201;DHT22;27869;51.442;7.540;2023-03-23T02:45:22;11.60;99.90
42201;DHT22;27869;51.442;7.540;2023-03-23T02:47:53;11.60;99.90
42201;DHT22;27869;51.442;7.540;2023-03-23T02:50:23;11.50;99.90
42201;DHT22;27869;51.442;7.540;2023-03-23T02:52:52;11.50;99.90
42201;DHT22;27869;51.442;7.540;2023-03-23T02:55:21;11.50;99.90
42201;DHT22;27869;51.442;7.540;2023-03-23T02:57:51;11.50;99.90
42201;DHT22;27869;51.442;7.540;2023-03-23T03:00:19;11.50;99.90
42201;DHT22;27869;51.442;7.540;2023-03-23T03:02:48;11.50;99.90
42201;DHT22;27869;51.442;7.540;2023-03-23T03:05:26;11.50;99.90
42201;DHT22;27869;51.442;7.540;2023-03-23T03:08:07;11.50;99.90
42201;DHT22;27869;51.442;7.540;2023-03-23T03:10:42;11.50;99.90
42201;DHT22;27869;51.442;7.540;2023-03-23T03:13:15;11.40;99.90
42201;DHT22;27869;51.442;7.540;2023-03-23T03:15:48;11.40;99.90
42201;DHT22;27869;51.442;7.540;2023-03-23T03:18:22;11.40;99.90
42201;DHT22;27869;51.442;7.540;2023-03-23T03:20:55;11.40;99.90
42201;DHT22;27869;51.442;7.540;2023-03-23T03:23:26;11.40;99.90
42201;DHT22;27869;51.442;7.540;2023-03-23T03:25:55;11.40;99.90
42201;DHT22;27869;51.442;7.540;2023-03-23T03:28:24;11.40;99.90
42201;DHT22;27869;51.442;7.540;2023-03-23T03:30:54;11.40;99.90
42201;DHT22;27869;51.442;7.540;2023-03-23T03:33:22;11.40;99.90
42201;DHT22;27869;51.442;7.540;2023-03-23T03:35:53;11.40;99.90
42201;DHT22;27869;51.442;7.540;2023-03-23T03:38:21;11.40;99.90
42201;DHT22;27869;51.442;7.540;2023-03-23T03:40:49;11.40;99.90
42201;DHT22;27869;51.442;7.540;2023-03-23T03:43:16;11.40;99.90
42201;DHT22;27869;51.442;7.540;2023-03-23T03:45:43;11.40;99.90
42201;DHT22;27869;51.442;7.540;2023-03-23T03:48:10;11.40;99.90
42201;DHT22;27869;51.442;7.540;2023-03-23T03:50:38;11.40;99.90
42201;DHT22;27869;51.442;7.540;2023-03-23T03:53:07;11.40;99.90
42201;DHT22;27869;51.442;7.540;2023-03-23T03:55:33;11.40;99.90
42201;DHT22;27869;51.442;7.540;2023-03-23T03:58:04;11.40;99.90
42201;DHT22;27869;51.442;7.540;2023-03-23T04:00:33;11.40;99.90
42201;DHT22;27869;51.442;7.540;2023-03-23T04:03:00;11.40;99.90
42201;DHT22;27869;51.442;7.540;2023-03-23T04:05:27;11.50;99.90
42201;DHT22;27869;51.442;7.540;2023-03-23T04:07:55;11.40;99.90
42201;DHT22;27869;51.442;7.540;2023-03-23T04:10:28;11.40;99.90
42201;DHT22;27869;51.442;7.540;2023-03-23T04:12:56;11.40;99.90
42201;DHT22;27869;51.442;7.540;2023-03-23T04:15:23;11.40;99.90
42201;DHT22;27869;51.442;7.540;2023-03-23T04:17:50;11.40;99.90
42201;DHT22;27869;51.442;7.540;2023-03-23T04:20:17;11.40;99.90
42201;DHT22;27869;51.442;7.540;2023-03-23T04:22:47;11.50;99.90
42201;DHT22;27869;51.442;7.540;2023-03-23T04:25:16;11.50;99.90
42201;DHT22;27869;51.442;7.540;2023-03-23T04:27:48;11.50;99.90
42201;DHT22;27869;51.442;7.540;2023-03-23T04:30:18;11.50;99.90
42201;DHT22;27869;51.442;7.540;2023-03-23T04:32:46;11.50;99.90
42201;DHT22;27869;51.442;7.540;2023-03-23T04:35:16;11.50;99.90
42201;DHT22;27869;51.442;7.540;2023-03-23T04:37:43;11.50;99.90
42201;DHT22;27869;51.442;7.540;2023-03-23T04:40:11;11.40;99.90
42201;DHT22;27869;51.442;7.540;2023-03-23T04:42:40;11.50;99.90
42201;DHT22;27869;51.442;7.540;2023-03-23T04:45:13;11.50;99.90
42201;DHT22;27869;51.442;7.540;2023-03-23T04:47:41;11.50;99.90
42201;DHT22;27869;51.442;7.540;2023-03-23T04:50:15;11.50;99.90
42201;DHT22;27869;51.442;7.540;2023-03-23T04:52:42;11.50;99.90
42201;DHT22;27869;51.442;7.540;2023-03-23T04:55:12;11.50;99.90
42201;DHT22;27869;51.442;7.540;2023-03-23T04:57:39;11.50;99.90
42201;DHT22;27869;51.442;7.540;2023-03-23T05:00:07;11.50;99.90
42201;DHT22;27869;51.442;7.540;2023-03-23T05:02:37;11.50;99.90
42201;DHT22;27869;51.442;7.540;2023-03-23T05:05:05;11.50;99.90
42201;DHT22;27869;51.442;7.540;2023-03-23T05:07:32;11.50;99.90
42201;DHT22;27869;51.442;7.540;2023-03-23T05:09:59;11.50;99.90
42201;DHT22;27869;51.442;7.540;2023-03-23T05:12:26;11.50;99.90
42201;DHT22;27869;51.442;7.540;2023-03-23T05:14:53;11.50;99.90
42201;DHT22;27869;51.442;7.540;2023-03-23T05:17:23;11.50;99.90
42201;DHT22;27869;51.442;7.540;2023-03-23T05:19:51;11.50;99.90
42201;DHT22;27869;51.442;7.540;2023-03-23T05:22:19;11.50;99.90
42201;DHT22;27869;51.442;7.540;2023-03-23T05:24:46;11.50;99.90
42201;DHT22;27869;51.442;7.540;2023-03-23T05:27:14;11.50;99.90
42201;DHT22;27869;51.442;7.540;2023-03-23T05:29:43;11.50;99.90
42201;DHT22;27869;51.442;7.540;2023-03-23T05:32:11;11.50;99.90
42201;DHT22;27869;51.442;7.540;2023-03-23T05:34:38;11.50;99.90
42201;DHT22;27869;51.442;7.540;2023-03-23T05:37:07;11.50;99.90
42201;DHT22;27869;51.442;7.540;2023-03-23T05:39:35;11.50;99.90
42201;DHT22;27869;51.442;7.540;2023-03-23T05:42:02;11.50;99.90
42201;DHT22;27869;51.442;7.540;2023-03-23T05:44:29;11.50;99.90
42201;DHT22;27869;51.442;7.540;2023-03-23T05:46:57;11.50;99.90
42201;DHT22;27869;51.442;7.540;2023-03-23T05:49:24;11.50;99.90
42201;DHT22;27869;51.442;7.540;2023-03-23T05:51:52;11.50;99.90
42201;DHT22;27869;51.442;7.540;2023-03-23T05:54:20;11.50;99.90
42201;DHT22;27869;51.442;7.540;2023-03-23T05:56:47;11.50;99.90
42201;DHT22;27869;51.442;7.540;2023-03-23T05:59:14;11.50;99.90
42201;DHT22;27869;51.442;7.540;2023-03-23T06:01:41;11.50;99.90
42201;DHT22;27869;51.442;7.540;2023-03-23T06:04:08;11.60;99.90
42201;DHT22;27869;51.442;7.540;2023-03-23T06:06:37;11.60;99.90
42201;DHT22;27869;51.442;7.540;2023-03-23T06:09:04;11.60;99.90
42201;DHT22;27869;51.442;7.540;2023-03-23T06:11:33;11.60;99.90
42201;DHT22;27869;51.442;7.540;2023-03-23T06:14:00;11.60;99.90
42201;DHT22;27869;51.442;7.540;2023-03-23T06:16:28;11.60;99.90
42201;DHT22;27869;51.442;7.540;2023-03-23T06:18:55;11.60;99.90
42201;DHT22;27869;51.442;7.540;2023-03-23T06:21:23;11.60;99.90
42201;DHT22;27869;51.442;7.540;2023-03-23T06:23:50;11.60;99.90
42201;DHT22;27869;51.442;7.540;2023-03-23T06:26:18;11.60;99.90
42201;DHT22;27869;51.442;7.540;2023-03-23T06:28:47;11.60;99.90
42201;DHT22;27869;51.442;7.540;2023-03-23T06:31:14;11.60;99.90
42201;DHT22;27869;51.442;7.540;2023-03-23T06:33:43;11.70;99.90
42201;DHT22;27869;51.442;7.540;2023-03-23T06:36:10;11.70;99.90
42201;DHT22;27869;51.442;7.540;2023-03-23T06:38:37;11.70;99.90
42201;DHT22;27869;51.442;7.540;2023-03-23T06:41:05;11.70;99.90
42201;DHT22;27869;51.442;7.540;2023-03-23T06:43:31;11.70;99.90
42201;DHT22;27869;51.442;7.540;2023-03-23T06:46:00;11.70;99.90
42201;DHT22;27869;51.442;7.540;2023-03-23T06:48:27;11.80;99.90
42201;DHT22;27869;51.442;7.540;2023-03-23T06:50:54;11.80;99.90
42201;DHT22;27869;51.442;7.540;2023-03-23T06:53:22;11.80;99.90
42201;DHT22;27869;51.442;7.540;2023-03-23T06:55:51;11.80;99.90
42201;DHT22;27869;51.442;7.540;2023-03-23T06:58:18;11.80;99.90
42201;DHT22;27869;51.442;7.540;2023-03-23T07:00:46;11.80;99.90
42201;DHT22;27869;51.442;7.540;2023-03-23T07:03:14;11.90;99.90
42201;DHT22;27869;51.442;7.540;2023-03-23T07:05:41;11.90;99.90
42201;DHT22;27869;51.442;7.540;2023-03-23T07:08:08;12.00;99.90
42201;DHT22;27869;51.442;7.540;2023-03-23T07:10:35;11.90;99.90
42201;DHT22;27869;51.442;7.540;2023-03-23T07:13:02;12.00;99.90
42201;DHT22;27869;51.442;7.540;2023-03-23T07:15:29;12.00;99.90
42201;DHT22;27869;51.442;7.540;2023-03-23T07:17:56;12.00;99.90
42201;DHT22;27869;51.442;7.540;2023-03-23T07:20:24;12.00;99.90
42201;DHT22;27869;51.442;7.540;2023-03-23T07:22:53;12.10;99.90
42201;DHT22;27869;51.442;7.540;2023-03-23T07:25:20;12.10;99.90
42201;DHT22;27869;51.442;7.540;2023-03-23T07:27:47;12.10;99.90
42201;DHT22;27869;51.442;7.540;2023-03-23T07:30:14;12.10;99.90
42201;DHT22;27869;51.442;7.540;2023-03-23T07:32:41;12.10;99.90
42201;DHT22;27869;51.442;7.540;2023-03-23T07:35:09;12.10;99.90
42201;DHT22;27869;51.442;7.540;2023-03-23T07:37:37;12.20;99.90
42201;DHT22;27869;51.442;7.540;2023-03-23T07:40:05;12.20;99.90
42201;DHT22;27869;51.442;7.540;2023-03-23T07:42:40;12.20;99.90
42201;DHT22;27869;51.442;7.540;2023-03-23T07:45:09;12.20;99.90
42201;DHT22;27869;51.442;7.540;2023-03-23T07:47:36;12.20;99.90
42201;DHT22;27869;51.442;7.540;2023-03-23T07:50:03;12.20;99.90
42201;DHT22;27869;51.442;7.540;2023-03-23T07:52:31;12.30;99.90
42201;DHT22;27869;51.442;7.540;2023-03-23T07:55:00;12.30;99.90
42201;DHT22;27869;51.442;7.540;2023-03-23T07:57:28;12.30;99.90
42201;DHT22;27869;51.442;7.540;2023-03-23T07:59:55;12.30;99.90
42201;DHT22;27869;51.442;7.540;2023-03-23T08:02:22;12.40;99.90
42201;DHT22;27869;51.442;7.540;2023-03-23T08:04:50;12.40;99.90
42201;DHT22;27869;51.442;7.540;2023-03-23T08:07:17;12.40;99.90
42201;DHT22;27869;51.442;7.540;2023-03-23T08:09:44;12.40;99.90
42201;DHT22;27869;51.442;7.540;2023-03-23T08:12:13;12.40;99.90
42201;DHT22;27869;51.442;7.540;2023-03-23T08:14:40;12.50;99.90
42201;DHT22;27869;51.442;7.540;2023-03-23T08:17:07;12.50;99.90
42201;DHT22;27869;51.442;7.540;2023-03-23T08:19:34;12.50;99.90
42201;DHT22;27869;51.442;7.540;2023-03-23T08:22:03;12.50;99.90
42201;DHT22;27869;51.442;7.540;2023-03-23T08:24:30;12.60;99.90
42201;DHT22;27869;51.442;7.540;2023-03-23T08:26:58;12.60;99.90
42201;DHT22;27869;51.442;7.540;2023-03-23T08:29:26;12.50;99.90
42201;DHT22;27869;51.442;7.540;2023-03-23T08:31:53;12.60;99.90
42201;DHT22;27869;51.442;7.540;2023-03-23T08:34:21;12.60;99.90
42201;DHT22;27869;51.442;7.540;2023-03-23T08:36:48;12.60;99.90
42201;DHT22;27869;51.442;7.540;2023-03-23T08:39:17;12.70;99.90
42201;DHT22;27869;51.442;7.540;2023-03-23T08:41:44;12.70;99.90
42201;DHT22;27869;51.442;7.540;2023-03-23T08:44:12;12.70;99.90
42201;DHT22;27869;51.442;7.540;2023-03-23T08:46:40;12.70;99.90
42201;DHT22;27869;51.442;7.540;2023-03-23T08:49:07;12.70;99.90
42201;DHT22;27869;51.442;7.540;2023-03-23T08:51:34;12.70;99.90
42201;DHT22;27869;51.442;7.540;2023-03-23T08:54:02;12.80;99.90
42201;DHT22;27869;51.442;7.540;2023-03-23T08:56:29;12.80;99.90
42201;DHT22;27869;51.442;7.540;2023-03-23T08:58:56;12.80;99.90
42201;DHT22;27869;51.442;7.540;2023-03-23T09:01:23;12.80;99.90
42201;DHT22;27869;51.442;7.540;2023-03-23T09:03:53;12.80;99.90
42201;DHT22;27869;51.442;7.540;2023-03-23T09:06:20;12.90;99.90
42201;DHT22;27869;51.442;7.540;2023-03-23T09:08:47;12.90;99.90
42201;DHT22;27869;51.442;7.540;2023-03-23T09:11:15;12.90;99.90
42201;DHT22;27869;51.442;7.540;2023-03-23T09:13:42;12.90;99.90
42201;DHT22;27869;51.442;7.540;2023-03-23T09:16:09;12.90;99.90
42201;DHT22;27869;51.442;7.540;2023-03-23T09:18:36;12.90;99.90
42201;DHT22;27869;51.442;7.540;2023-03-23T09:21:05;13.00;99.90
42201;DHT22;27869;51.442;7.540;2023-03-23T09:23:33;13.00;99.90
42201;DHT22;27869;51.442;7.540;2023-03-23T09:26:01;13.00;99.90
42201;DHT22;27869;51.442;7.540;2023-03-23T09:28:29;13.00;99.90
42201;DHT22;27869;51.442;7.540;2023-03-23T09:30:57;13.00;99.90
42201;DHT22;27869;51.442;7.540;2023-03-23T09:33:25;13.10;99.90
42201;DHT22;27869;51.442;7.540;2023-03-23T09:35:52;13.00;99.90
42201;DHT22;27869;51.442;7.540;2023-03-23T09:38:21;13.10;99.90
42201;DHT22;27869;51.442;7.540;2023-03-23T09:40:50;13.10;99.90
42201;DHT22;27869;51.442;7.540;2023-03-23T09:43:29;13.10;99.90
42201;DHT22;27869;51.442;7.540;2023-03-23T09:46:09;13.10;99.90
42201;DHT22;27869;51.442;7.540;2023-03-23T09:48:46;13.10;99.90
42201;DHT22;27869;51.442;7.540;2023-03-23T09:51:22;13.20;99.90
42201;DHT22;27869;51.442;7.540;2023-03-23T09:53:54;13.20;99.90
42201;DHT22;27869;51.442;7.540;2023-03-23T09:56:23;13.20;99.90
42201;DHT22;27869;51.442;7.540;2023-03-23T09:58:56;13.20;99.90
42201;DHT22;27869;51.442;7.540;2023-03-23T10:01:26;13.20;99.90
42201;DHT22;27869;51.442;7.540;2023-03-23T10:03:59;13.30;99.90
42201;DHT22;27869;51.442;7.540;2023-03-23T10:06:28;13.30;99.90
42201;DHT22;27869;51.442;7.540;2023-03-23T10:08:58;13.30;99.90
42201;DHT22;27869;51.442;7.540;2023-03-23T10:11:35;13.30;99.90
42201;DHT22;27869;51.442;7.540;2023-03-23T10:14:13;13.40;99.90
42201;DHT22;27869;51.442;7.540;2023-03-23T10:16:50;13.40;99.90
42201;DHT22;27869;51.442;7.540;2023-03-23T10:19:23;13.40;99.90
42201;DHT22;27869;51.442;7.540;2023-03-23T10:21:59;13.50;99.90
42201;DHT22;27869;51.442;7.540;2023-03-23T10:24:34;13.50;99.90
42201;DHT22;27869;51.442;7.540;2023-03-23T10:27:10;13.50;99.90
42201;DHT22;27869;51.442;7.540;2023-03-23T10:29:42;13.50;99.90
42201;DHT22;27869;51.442;7.540;2023-03-23T10:32:12;13.50;99.90
42201;DHT22;27869;51.442;7.540;2023-03-23T10:34:44;13.60;99.90
42201;DHT22;27869;51.442;7.540;2023-03-23T10:37:13;13.60;99.90
42201;DHT22;27869;51.442;7.540;2023-03-23T10:39:47;13.60;99.90
42201;DHT22;27869;51.442;7.540;2023-03-23T10:42:22;13.60;99.90
42201;DHT22;27869;51.442;7.540;2023-03-23T10:44:50;13.60;99.90
42201;DHT22;27869;51.442;7.540;2023-03-23T10:47:17;13.50;99.90
42201;DHT22;27869;51.442;7.540;2023-03-23T10:49:47;13.50;99.90
42201;DHT22;27869;51.442;7.540;2023-03-23T10:52:26;13.50;99.90
42201;DHT22;27869;51.442;7.540;2023-03-23T10:55:00;13.40;99.90
42201;DHT22;27869;51.442;7.540;2023-03-23T10:57:29;13.30;99.90
42201;DHT22;27869;51.442;7.540;2023-03-23T11:00:04;13.10;99.90
42201;DHT22;27869;51.442;7.540;2023-03-23T11:02:38;12.90;99.90
42201;DHT22;27869;51.442;7.540;2023-03-23T11:05:16;12.80;99.90
42201;DHT22;27869;51.442;7.540;2023-03-23T11:07:49;12.70;99.90
42201;DHT22;27869;51.442;7.540;2023-03-23T11:10:28;12.50;99.90
42201;DHT22;27869;51.442;7.540;2023-03-23T11:13:00;12.40;99.90
42201;DHT22;27869;51.442;7.540;2023-03-23T11:15:32;12.30;99.90
42201;DHT22;27869;51.442;7.540;2023-03-23T11:18:02;12.20;99.90
42201;DHT22;27869;51.442;7.540;2023-03-23T11:20:32;12.10;99.90
42201;DHT22;27869;51.442;7.540;2023-03-23T11:23:01;12.10;99.90
42201;DHT22;27869;51.442;7.540;2023-03-23T11:25:51;12.00;99.90
42201;DHT22;27869;51.442;7.540;2023-03-23T11:28:19;11.90;99.90
42201;DHT22;27869;51.442;7.540;2023-03-23T11:30:47;11.90;99.90
42201;DHT22;27869;51.442;7.540;2023-03-23T11:33:15;11.80;99.90
42201;DHT22;27869;51.442;7.540;2023-03-23T11:35:44;11.80;99.90
42201;DHT22;27869;51.442;7.540;2023-03-23T11:38:18;11.70;99.90
42201;DHT22;27869;51.442;7.540;2023-03-23T11:40:50;11.80;99.90
42201;DHT22;27869;51.442;7.540;2023-03-23T11:43:19;11.70;99.90
42201;DHT22;27869;51.442;7.540;2023-03-23T11:45:50;11.70;99.90
42201;DHT22;27869;51.442;7.540;2023-03-23T11:48:23;11.70;99.90
42201;DHT22;27869;51.442;7.540;2023-03-23T11:50:54;11.60;99.90
42201;DHT22;27869;51.442;7.540;2023-03-23T11:53:30;11.60;99.90
42201;DHT22;27869;51.442;7.540;2023-03-23T11:56:10;11.60;99.90
42201;DHT22;27869;51.442;7.540;2023-03-23T11:58:38;11.60;99.90
42201;DHT22;27869;51.442;7.540;2023-03-23T12:01:12;11.60;99.90
42201;DHT22;27869;51.442;7.540;2023-03-23T12:04:08;11.60;99.90
42201;DHT22;27869;51.442;7.540;2023-03-23T12:06:44;11.60;99.90
42201;DHT22;27869;51.442;7.540;2023-03-23T12:09:24;11.50;99.90
42201;DHT22;27869;51.442;7.540;2023-03-23T12:12:05;11.50;99.90
42201;DHT22;27869;51.442;7.540;2023-03-23T12:14:40;11.50;99.90
42201;DHT22;27869;51.442;7.540;2023-03-23T12:17:20;11.50;99.90
42201;DHT22;27869;51.442;7.540;2023-03-23T12:20:12;11.50;99.90
42201;DHT22;27869;51.442;7.540;2023-03-23T12:22:51;11.50;99.90
42201;DHT22;27869;51.442;7.540;2023-03-23T12:28:29;11.40;99.90
42201;DHT22;27869;51.442;7.540;2023-03-23T12:31:04;11.30;99.90
42201;DHT22;27869;51.442;7.540;2023-03-23T12:33:44;11.30;99.90
42201;DHT22;27869;51.442;7.540;2023-03-23T12:36:23;11.30;99.90
42201;DHT22;27869;51.442;7.540;2023-03-23T12:39:14;11.30;99.90
42201;DHT22;27869;51.442;7.540;2023-03-23T12:41:48;11.30;99.90
42201;DHT22;27869;51.442;7.540;2023-03-23T12:44:21;11.30;99.90
42201;DHT22;27869;51.442;7.540;2023-03-23T12:47:18;11.40;99.90
42201;DHT22;27869;51.442;7.540;2023-03-23T12:49:50;11.40;99.90
42201;DHT22;27869;51.442;7.540;2023-03-23T12:52:22;11.40;99.90
42201;DHT22;27869;51.442;7.540;2023-03-23T12:54:53;11.50;99.90
42201;DHT22;27869;51.442;7.540;2023-03-23T12:57:27;11.50;99.90
42201;DHT22;27869;51.442;7.540;2023-03-23T13:00:04;11.50;99.90
42201;DHT22;27869;51.442;7.540;2023-03-23T13:02:41;11.50;99.90
42201;DHT22;27869;51.442;7.540;2023-03-23T13:05:27;11.50;99.90
42201;DHT22;27869;51.442;7.540;2023-03-23T13:07:58;11.50;99.90
42201;DHT22;27869;51.442;7.540;2023-03-23T13:10:29;11.60;99.90
42201;DHT22;27869;51.442;7.540;2023-03-23T13:12:59;11.60;99.90
42201;DHT22;27869;51.442;7.540;2023-03-23T13:15:33;11.60;99.90
42201;DHT22;27869;51.442;7.540;2023-03-23T13:18:08;11.60;99.90
42201;DHT22;27869;51.442;7.540;2023-03-23T13:20:45;11.50;99.90
42201;DHT22;27869;51.442;7.540;2023-03-23T13:23:18;11.50;99.90
42201;DHT22;27869;51.442;7.540;2023-03-23T13:25:55;11.50;99.90
42201;DHT22;27869;51.442;7.540;2023-03-23T13:28:25;11.50;99.90
42201;DHT22;27869;51.442;7.540;2023-03-23T13:31:00;11.50;99.90
42201;DHT22;27869;51.442;7.540;2023-03-23T13:33:32;11.50;99.90
42201;DHT22;27869;51.442;7.540;2023-03-23T13:36:07;11.50;99.90
42201;DHT22;27869;51.442;7.540;2023-03-23T13:38:34;11.60;99.90
42201;DHT22;27869;51.442;7.540;2023-03-23T13:41:07;11.60;99.90
42201;DHT22;27869;51.442;7.540;2023-03-23T13:43:36;11.60;99.90
42201;DHT22;27869;51.442;7.540;2023-03-23T13:46:12;11.70;99.90
42201;DHT22;27869;51.442;7.540;2023-03-23T13:48:42;11.70;99.90
42201;DHT22;27869;51.442;7.540;2023-03-23T13:51:26;11.80;99.90
42201;DHT22;27869;51.442;7.540;2023-03-23T13:54:13;11.80;99.90
42201;DHT22;27869;51.442;7.540;2023-03-23T13:56:42;11.80;99.90
42201;DHT22;27869;51.442;7.540;2023-03-23T13:59:14;11.80;99.90
42201;DHT22;27869;51.442;7.540;2023-03-23T14:01:43;11.90;99.90
42201;DHT22;27869;51.442;7.540;2023-03-23T14:04:13;11.90;99.90
42201;DHT22;27869;51.442;7.540;2023-03-23T14:06:42;11.90;99.90
42201;DHT22;27869;51.442;7.540;2023-03-23T14:09:14;11.90;99.90
42201;DHT22;27869;51.442;7.540;2023-03-23T14:11:48;11.90;99.90
42201;DHT22;27869;51.442;7.540;2023-03-23T14:14:23;11.90;99.90
42201;DHT22;27869;51.442;7.540;2023-03-23T14:16:52;11.90;99.90
42201;DHT22;27869;51.442;7.540;2023-03-23T14:19:23;11.90;99.90
42201;DHT22;27869;51.442;7.540;2023-03-23T14:21:53;11.90;99.90
42201;DHT22;27869;51.442;7.540;2023-03-23T14:24:22;12.00;99.90
42201;DHT22;27869;51.442;7.540;2023-03-23T14:26:51;12.00;99.90
42201;DHT22;27869;51.442;7.540;2023-03-23T14:29:20;11.90;99.90
42201;DHT22;27869;51.442;7.540;2023-03-23T14:31:54;11.90;99.90
42201;DHT22;27869;51.442;7.540;2023-03-23T14:34:23;11.90;99.90
42201;DHT22;27869;51.442;7.540;2023-03-23T14:36:52;11.90;99.90
42201;DHT22;27869;51.442;7.540;2023-03-23T14:39:23;11.90;99.90
42201;DHT22;27869;51.442;7.540;2023-03-23T14:41:51;11.90;99.90
42201;DHT22;27869;51.442;7.540;2023-03-23T14:44:23;11.90;99.90
42201;DHT22;27869;51.442;7.540;2023-03-23T14:46:50;11.90;99.90
42201;DHT22;27869;51.442;7.540;2023-03-23T14:49:29;11.90;99.90
42201;DHT22;27869;51.442;7.540;2023-03-23T14:51:57;12.00;99.90
42201;DHT22;27869;51.442;7.540;2023-03-23T14:54:29;12.00;99.90
42201;DHT22;27869;51.442;7.540;2023-03-23T14:57:05;12.00;99.90
42201;DHT22;27869;51.442;7.540;2023-03-23T14:59:35;12.00;99.90
42201;DHT22;27869;51.442;7.540;2023-03-23T15:02:03;12.10;99.90
42201;DHT22;27869;51.442;7.540;2023-03-23T15:04:31;12.20;99.90
42201;DHT22;27869;51.442;7.540;2023-03-23T15:07:02;12.30;99.90
42201;DHT22;27869;51.442;7.540;2023-03-23T15:09:30;12.30;99.90
42201;DHT22;27869;51.442;7.540;2023-03-23T15:11:59;12.40;99.90
42201;DHT22;27869;51.442;7.540;2023-03-23T15:14:28;12.40;99.90
42201;DHT22;27869;51.442;7.540;2023-03-23T15:16:57;12.50;99.90
42201;DHT22;27869;51.442;7.540;2023-03-23T15:19:26;12.60;99.90
42201;DHT22;27869;51.442;7.540;2023-03-23T15:21:57;12.60;99.90
42201;DHT22;27869;51.442;7.540;2023-03-23T15:24:33;12.60;99.90
42201;DHT22;27869;51.442;7.540;2023-03-23T15:27:11;12.70;99.90
42201;DHT22;27869;51.442;7.540;2023-03-23T15:29:50;12.70;99.90
42201;DHT22;27869;51.442;7.540;2023-03-23T15:32:22;12.70;99.90
42201;DHT22;27869;51.442;7.540;2023-03-23T15:34:50;12.80;99.90
42201;DHT22;27869;51.442;7.540;2023-03-23T15:37:21;12.80;99.90
42201;DHT22;27869;51.442;7.540;2023-03-23T15:39:50;12.80;99.90
42201;DHT22;27869;51.442;7.540;2023-03-23T15:42:28;12.90;99.90
42201;DHT22;27869;51.442;7.540;2023-03-23T15:45:20;12.90;99.90
42201;DHT22;27869;51.442;7.540;2023-03-23T15:47:49;12.90;99.90
42201;DHT22;27869;51.442;7.540;2023-03-23T15:50:17;12.90;99.90
42201;DHT22;27869;51.442;7.540;2023-03-23T15:52:47;12.90;99.90
42201;DHT22;27869;51.442;7.540;2023-03-23T15:55:23;12.90;99.90
42201;DHT22;27869;51.442;7.540;2023-03-23T15:57:51;13.00;99.90
42201;DHT22;27869;51.442;7.540;2023-03-23T16:00:20;13.00;99.90